Time;durP1;ratioP1;P1;durP2;ratioP2;P2;SDS_P1;SDS_P2;PMS_P1;PMS_P2;Temp;Humidity;BMP_temperature;BMP_pressure;BME280_temperature;BME280_humidity;BME280_pressure;Samples;Min_cycle;Max_cycle;Signal;HPM_P1;HPM_P2
2022/04/28 00:01:42;;;;;;;7.33;5.37;;;3.40;99.90;;;;;;4179834;28;20435;-69
2022/04/28 00:03:42;;;;;;;6.87;5.10;;;3.40;99.90;;;;;;4179872;28;20176;-69
2022/04/28 00:05:43;;;;;;;6.53;4.83;;;3.40;99.90;;;;;;4179179;28;20180;-69
2022/04/28 00:07:44;;;;;;;6.53;4.60;;;3.30;99.90;;;;;;4178343;28;20200;-70
2022/04/28 00:09:45;;;;;;;7.87;5.67;;;3.20;99.90;;;;;;4179752;28;20226;-69
2022/04/28 00:11:49;;;;;;;7.37;5.60;;;3.20;99.90;;;;;;4179698;28;20172;-69
2022/04/28 00:13:50;;;;;;;7.03;5.17;;;3.20;99.90;;;;;;4194840;28;20510;-69
2022/04/28 00:15:51;;;;;;;7.87;5.00;;;3.10;99.90;;;;;;4179129;28;20426;-69
2022/04/28 00:17:51;;;;;;;6.80;4.80;;;3.10;99.90;;;;;;4179540;28;20226;-68
2022/04/28 00:19:52;;;;;;;11.17;5.67;;;3.10;99.90;;;;;;4179726;28;20221;-68
2022/04/28 00:21:53;;;;;;;8.03;4.90;;;3.00;99.90;;;;;;4179534;28;20243;-70
2022/04/28 00:23:53;;;;;;;7.37;5.57;;;3.00;99.90;;;;;;4179024;28;20637;-70
2022/04/28 00:25:54;;;;;;;9.63;5.47;;;3.00;99.90;;;;;;4178884;28;20643;-70
2022/04/28 00:27:55;;;;;;;8.90;5.90;;;3.00;99.90;;;;;;4179337;28;20738;-69
2022/04/28 00:29:56;;;;;;;7.83;5.13;;;3.00;99.90;;;;;;4179779;28;20565;-70
2022/04/28 00:31:57;;;;;;;8.80;5.83;;;3.10;99.90;;;;;;4178263;28;20192;-69
2022/04/28 00:33:57;;;;;;;6.43;4.80;;;3.20;99.90;;;;;;4178901;28;20828;-68
2022/04/28 00:35:58;;;;;;;7.83;5.87;;;3.20;99.90;;;;;;4179739;28;20200;-69
2022/04/28 00:37:59;;;;;;;9.40;5.90;;;3.20;99.90;;;;;;4180538;28;20189;-68
2022/04/28 00:39:59;;;;;;;7.67;5.37;;;3.20;99.90;;;;;;4195312;28;20211;-69
2022/04/28 00:42:00;;;;;;;9.53;6.07;;;3.10;99.90;;;;;;4194326;28;20232;-69
2022/04/28 00:44:01;;;;;;;8.97;6.70;;;3.10;99.90;;;;;;4195908;28;20545;-68
2022/04/28 00:46:01;;;;;;;10.43;6.70;;;3.00;99.90;;;;;;4195524;28;20639;-69
2022/04/28 00:50:39;;;;;;;9.73;6.03;;;3.00;99.90;;;;;;4194951;28;20240;-69
2022/04/28 00:52:40;;;;;;;10.27;6.10;;;3.00;99.90;;;;;;4195944;28;20516;-69
2022/04/28 00:54:42;;;;;;;11.90;6.80;;;2.90;99.90;;;;;;4194629;28;20926;-69
2022/04/28 00:56:43;;;;;;;8.83;5.80;;;2.90;99.90;;;;;;4195447;28;20434;-68
2022/04/28 00:58:46;;;;;;;10.30;6.23;;;2.80;99.90;;;;;;4195794;28;20492;-69
2022/04/28 01:00:47;;;;;;;9.47;6.03;;;2.80;99.90;;;;;;4194100;28;20442;-68
2022/04/28 01:02:47;;;;;;;7.70;5.60;;;2.70;99.90;;;;;;4194292;28;20473;-68
2022/04/28 01:04:49;;;;;;;8.70;5.43;;;2.70;99.90;;;;;;4195687;28;20179;-69
2022/04/28 01:06:52;;;;;;;9.00;5.73;;;2.70;99.90;;;;;;4193663;28;20183;-69
2022/04/28 01:08:52;;;;;;;8.93;6.13;;;2.70;99.90;;;;;;4195738;28;20441;-68
2022/04/28 01:10:54;;;;;;;10.37;6.40;;;2.60;99.90;;;;;;4193799;28;20501;-69
2022/04/28 01:12:55;;;;;;;10.27;6.97;;;2.60;99.90;;;;;;4195297;28;20302;-69
2022/04/28 01:14:56;;;;;;;7.93;5.57;;;2.60;99.90;;;;;;4194046;28;20421;-68
2022/04/28 01:17:00;;;;;;;8.67;6.13;;;2.60;99.90;;;;;;4194580;28;20429;-69
2022/04/28 01:19:01;;;;;;;8.83;6.10;;;2.60;99.90;;;;;;4193936;28;20458;-68
2022/04/28 01:21:06;;;;;;;9.73;6.93;;;2.70;99.90;;;;;;4195353;28;20841;-69
2022/04/28 01:23:08;;;;;;;9.03;6.17;;;2.60;99.90;;;;;;4193946;28;20211;-68
2022/04/28 01:25:11;;;;;;;10.33;6.23;;;2.60;99.90;;;;;;4195138;28;20922;-68
2022/04/28 01:27:13;;;;;;;11.23;7.03;;;2.60;99.90;;;;;;4194788;28;20475;-68
2022/04/28 01:29:14;;;;;;;11.27;6.90;;;2.60;99.90;;;;;;4195214;28;20450;-68
2022/04/28 01:31:15;;;;;;;10.70;6.87;;;2.60;99.90;;;;;;4195056;28;20436;-68
2022/04/28 01:33:15;;;;;;;12.57;7.43;;;2.60;99.90;;;;;;4193735;28;20643;-69
2022/04/28 01:35:16;;;;;;;10.97;6.30;;;2.50;99.90;;;;;;4194061;28;20187;-69
2022/04/28 01:37:17;;;;;;;10.23;7.10;;;2.50;99.90;;;;;;4193413;28;20186;-68
2022/04/28 01:39:18;;;;;;;9.37;6.07;;;2.50;99.90;;;;;;4195230;28;20199;-69
2022/04/28 01:41:19;;;;;;;13.77;7.13;;;2.60;99.90;;;;;;4195139;28;20440;-68
2022/04/28 01:43:19;;;;;;;11.30;7.13;;;2.50;99.90;;;;;;4195161;28;20204;-68
2022/04/28 01:45:20;;;;;;;11.17;6.63;;;2.50;99.90;;;;;;4194656;28;20218;-70
2022/04/28 01:47:22;;;;;;;11.37;7.83;;;2.50;99.90;;;;;;4195175;28;20186;-69
2022/04/28 01:49:22;;;;;;;12.17;7.03;;;2.50;99.90;;;;;;4194768;28;20206;-69
2022/04/28 01:56:01;;;;;;;10.33;6.90;;;2.50;99.90;;;;;;4194354;28;20451;-69
2022/04/28 01:58:02;;;;;;;13.20;8.47;;;2.50;99.90;;;;;;4194903;28;20646;-69
2022/04/28 02:00:04;;;;;;;12.03;7.93;;;2.50;99.90;;;;;;4194886;28;20182;-68
2022/04/28 02:02:05;;;;;;;13.47;8.27;;;2.50;99.90;;;;;;4194771;28;20308;-69
2022/04/28 02:04:05;;;;;;;12.40;7.37;;;2.40;99.90;;;;;;4194805;28;20410;-69
2022/04/28 02:06:06;;;;;;;9.83;6.57;;;2.40;99.90;;;;;;4192745;28;20176;-68
2022/04/28 02:08:07;;;;;;;10.33;6.93;;;2.30;99.90;;;;;;4195010;28;20309;-71
2022/04/28 02:10:09;;;;;;;10.27;6.77;;;2.20;99.90;;;;;;4195217;28;20202;-70
2022/04/28 02:12:11;;;;;;;12.17;7.73;;;2.20;99.90;;;;;;4194965;28;20430;-69
2022/04/28 02:14:11;;;;;;;11.67;6.87;;;2.30;99.90;;;;;;4193411;28;20442;-69
2022/04/28 02:16:12;;;;;;;12.73;8.17;;;2.20;99.90;;;;;;4194073;28;20993;-68
2022/04/28 02:18:13;;;;;;;12.97;8.77;;;2.20;99.90;;;;;;4193462;28;20208;-68
2022/04/28 02:20:13;;;;;;;15.00;8.90;;;2.20;99.90;;;;;;4194842;28;20191;-70
2022/04/28 02:22:15;;;;;;;13.97;8.00;;;2.20;99.90;;;;;;4194664;28;20207;-68
2022/04/28 02:24:16;;;;;;;12.63;7.87;;;2.20;99.90;;;;;;4193620;28;20236;-69
2022/04/28 02:26:16;;;;;;;13.37;8.20;;;2.20;99.90;;;;;;4194040;28;20430;-68
2022/04/28 02:28:18;;;;;;;18.93;10.07;;;2.20;99.90;;;;;;4194622;28;20472;-69
2022/04/28 02:30:19;;;;;;;15.27;9.23;;;2.20;99.90;;;;;;4194586;28;20513;-68
2022/04/28 02:32:19;;;;;;;14.43;8.80;;;2.20;99.90;;;;;;4194587;28;20651;-69
2022/04/28 02:34:20;;;;;;;16.77;10.00;;;2.20;99.90;;;;;;4187340;28;20682;-69
2022/04/28 02:36:21;;;;;;;15.93;8.90;;;2.20;99.90;;;;;;4177286;28;20219;-69
2022/04/28 02:38:21;;;;;;;16.60;9.17;;;2.20;99.90;;;;;;4176784;28;20208;-68
2022/04/28 02:40:22;;;;;;;18.53;9.67;;;2.20;99.90;;;;;;4173819;28;20200;-69
2022/04/28 02:42:23;;;;;;;15.03;9.20;;;2.10;99.90;;;;;;4176893;28;20215;-68
2022/04/28 02:44:23;;;;;;;13.37;8.07;;;2.10;99.90;;;;;;4194198;28;20199;-69
2022/04/28 02:46:24;;;;;;;11.00;7.97;;;2.00;99.90;;;;;;4195593;28;20225;-70
2022/04/28 02:48:25;;;;;;;12.63;7.63;;;2.00;99.90;;;;;;4197574;28;20203;-68
2022/04/28 02:50:26;;;;;;;10.20;7.33;;;2.00;99.90;;;;;;4197604;28;20184;-68
2022/04/28 02:52:26;;;;;;;12.03;7.87;;;2.00;99.90;;;;;;4196546;28;20452;-69
2022/04/28 02:54:27;;;;;;;13.07;7.07;;;2.00;99.90;;;;;;4197607;28;20183;-68
2022/04/28 02:56:28;;;;;;;10.80;7.10;;;2.00;99.90;;;;;;4195656;28;20187;-68
2022/04/28 02:58:29;;;;;;;13.63;7.80;;;2.00;99.90;;;;;;4195825;28;20476;-68
2022/04/28 03:00:30;;;;;;;13.53;8.20;;;2.00;99.90;;;;;;4196054;28;20333;-67
2022/04/28 03:02:31;;;;;;;12.03;7.47;;;1.90;99.90;;;;;;4197274;28;20233;-69
2022/04/28 03:04:32;;;;;;;10.70;7.33;;;1.90;99.90;;;;;;4195870;28;20553;-68
2022/04/28 03:11:11;;;;;;;11.10;7.23;;;1.80;99.90;;;;;;4199707;28;20456;-68
2022/04/28 03:13:12;;;;;;;10.30;7.20;;;1.80;99.90;;;;;;4199333;28;20421;-68
2022/04/28 03:15:12;;;;;;;11.70;7.70;;;1.80;99.90;;;;;;4197829;28;20727;-68
2022/04/28 03:17:13;;;;;;;9.90;6.70;;;1.90;99.90;;;;;;4199012;28;20215;-69
2022/04/28 03:19:14;;;;;;;13.07;8.13;;;1.90;99.90;;;;;;4198745;28;20211;-69
2022/04/28 03:21:14;;;;;;;14.03;8.17;;;1.90;99.90;;;;;;4198879;28;20227;-68
2022/04/28 03:23:15;;;;;;;16.47;8.53;;;1.90;99.90;;;;;;4198430;28;20223;-68
2022/04/28 03:25:16;;;;;;;13.00;8.30;;;1.90;99.90;;;;;;4198809;28;21035;-69
2022/04/28 03:27:16;;;;;;;12.83;8.20;;;1.90;99.90;;;;;;4198231;28;20191;-68
2022/04/28 03:29:17;;;;;;;14.73;8.37;;;1.90;99.90;;;;;;4198967;28;20192;-67
2022/04/28 03:31:18;;;;;;;12.27;7.33;;;1.90;99.90;;;;;;4199363;28;20180;-69
2022/04/28 03:33:18;;;;;;;13.77;8.30;;;1.80;99.90;;;;;;4198528;28;20224;-69
2022/04/28 03:35:19;;;;;;;15.97;9.63;;;1.90;99.90;;;;;;4198425;28;20253;-68
2022/04/28 03:37:20;;;;;;;17.03;9.07;;;1.80;99.90;;;;;;4197275;28;20191;-69
2022/04/28 03:39:20;;;;;;;15.47;9.90;;;1.80;99.90;;;;;;4198515;28;20231;-69
2022/04/28 03:41:21;;;;;;;15.03;9.00;;;1.80;99.90;;;;;;4197597;28;20179;-69
2022/04/28 03:43:24;;;;;;;17.47;9.83;;;1.80;99.90;;;;;;4198451;28;20215;-68
2022/04/28 03:45:25;;;;;;;20.03;12.40;;;1.80;99.90;;;;;;4197936;28;20270;-68
2022/04/28 03:47:32;;;;;;;19.37;10.57;;;1.70;99.90;;;;;;4197478;28;20460;-68
2022/04/28 03:49:33;;;;;;;18.03;9.63;;;1.60;99.90;;;;;;4199047;28;20202;-69
2022/04/28 03:51:33;;;;;;;14.67;8.73;;;1.70;99.90;;;;;;4199014;28;20418;-68
2022/04/28 03:53:34;;;;;;;17.57;9.67;;;1.60;99.90;;;;;;4199005;28;20206;-68
2022/04/28 03:55:35;;;;;;;16.03;9.07;;;1.60;99.90;;;;;;4198954;28;20252;-68
2022/04/28 03:57:36;;;;;;;18.40;9.97;;;1.60;99.90;;;;;;4198643;28;20176;-68
2022/04/28 03:59:37;;;;;;;14.90;8.83;;;1.60;99.90;;;;;;4198954;28;20534;-68
2022/04/28 04:01:38;;;;;;;14.30;8.57;;;1.60;99.90;;;;;;4196725;28;21115;-68
2022/04/28 04:03:38;;;;;;;14.03;8.00;;;1.50;99.90;;;;;;4198681;28;20581;-69
2022/04/28 04:05:39;;;;;;;13.83;9.03;;;1.40;99.90;;;;;;4198430;28;20769;-68
2022/04/28 04:07:42;;;;;;;16.13;9.10;;;1.50;99.90;;;;;;4198668;28;20176;-67
2022/04/28 04:09:43;;;;;;;26.57;16.10;;;1.50;99.90;;;;;;4199225;28;20283;-68
2022/04/28 04:11:43;;;;;;;21.57;12.37;;;1.50;99.90;;;;;;4199004;28;20524;-69
2022/04/28 04:13:45;;;;;;;20.90;12.70;;;1.50;99.90;;;;;;4198838;28;20180;-67
2022/04/28 04:15:46;;;;;;;22.17;11.73;;;1.60;99.90;;;;;;4198678;28;20194;-67
2022/04/28 04:17:46;;;;;;;19.10;11.30;;;1.60;99.90;;;;;;4199360;28;20425;-68
2022/04/28 04:19:47;;;;;;;24.00;12.00;;;1.60;99.90;;;;;;4197644;28;20222;-68
2022/04/28 04:21:49;;;;;;;21.73;10.77;;;1.60;99.90;;;;;;4199146;28;20215;-67
2022/04/28 04:23:50;;;;;;;22.47;12.40;;;1.60;99.90;;;;;;4198753;28;20901;-68
2022/04/28 04:25:50;;;;;;;20.07;10.37;;;1.60;99.90;;;;;;4198064;28;20418;-69
2022/04/28 04:27:51;;;;;;;17.93;10.50;;;1.60;99.90;;;;;;4196027;28;20203;-68
2022/04/28 04:29:52;;;;;;;19.50;11.00;;;1.60;99.90;;;;;;4195636;28;20207;-68
2022/04/28 04:34:12;;;;;;;20.67;11.13;;;1.70;99.90;;;;;;4195814;28;20472;-68
2022/04/28 04:36:12;;;;;;;17.33;10.17;;;1.70;99.90;;;;;;4194701;28;20418;-69
2022/04/28 04:38:13;;;;;;;18.00;9.63;;;1.70;99.90;;;;;;4181428;28;20201;-68
2022/04/28 04:40:14;;;;;;;16.07;9.00;;;1.70;99.90;;;;;;4179095;28;20628;-69
2022/04/28 04:42:15;;;;;;;19.43;9.97;;;1.70;99.90;;;;;;4179110;28;20212;-67
2022/04/28 04:44:16;;;;;;;17.10;9.13;;;1.70;99.90;;;;;;4179364;28;20207;-69
2022/04/28 04:46:16;;;;;;;16.40;10.80;;;1.70;99.90;;;;;;4178652;28;20518;-68
2022/04/28 04:48:18;;;;;;;16.23;9.93;;;1.80;99.90;;;;;;4179253;28;20200;-68
2022/04/28 04:50:18;;;;;;;18.23;9.83;;;1.80;99.90;;;;;;4179182;28;20184;-69
2022/04/28 04:52:19;;;;;;;17.40;10.37;;;1.80;99.90;;;;;;4179178;28;20447;-68
2022/04/28 04:54:20;;;;;;;28.20;11.87;;;1.90;99.90;;;;;;4185145;28;20807;-68
2022/04/28 04:56:20;;;;;;;29.27;11.37;;;1.90;99.90;;;;;;4194719;28;20183;-69
2022/04/28 04:58:21;;;;;;;21.47;10.23;;;2.00;99.90;;;;;;4195365;28;20611;-68
2022/04/28 05:00:22;;;;;;;22.13;10.60;;;2.00;99.90;;;;;;4195297;28;20680;-68
2022/04/28 05:02:23;;;;;;;19.37;9.97;;;2.00;99.90;;;;;;4195292;28;20761;-68
2022/04/28 05:04:24;;;;;;;16.90;10.07;;;2.00;99.90;;;;;;4195473;28;20180;-68
2022/04/28 05:06:24;;;;;;;21.93;12.10;;;2.00;99.90;;;;;;4194715;28;20763;-68
2022/04/28 05:08:25;;;;;;;18.60;11.27;;;2.10;99.90;;;;;;4194991;28;20571;-68
2022/04/28 05:10:26;;;;;;;22.80;11.53;;;2.10;99.90;;;;;;4195228;28;20207;-68
2022/04/28 05:12:27;;;;;;;31.03;10.80;;;2.20;99.90;;;;;;4194969;28;20569;-70
2022/04/28 05:14:27;;;;;;;19.63;10.50;;;2.20;99.90;;;;;;4195009;28;20428;-68
2022/04/28 05:16:28;;;;;;;19.63;10.37;;;2.30;99.90;;;;;;4194259;28;20211;-68
2022/04/28 05:18:29;;;;;;;23.40;12.87;;;2.30;99.90;;;;;;4195037;28;20203;-69
2022/04/28 05:20:30;;;;;;;18.67;11.37;;;2.30;99.90;;;;;;4193785;28;20727;-69
2022/04/28 05:22:31;;;;;;;17.23;9.33;;;2.30;99.90;;;;;;4195029;28;20472;-69
2022/04/28 05:24:31;;;;;;;23.27;11.23;;;2.30;99.90;;;;;;4195069;28;20180;-70
2022/04/28 05:26:32;;;;;;;20.70;11.23;;;2.40;99.90;;;;;;4194637;28;20176;-69
2022/04/28 05:28:32;;;;;;;20.83;10.47;;;2.40;99.90;;;;;;4194986;28;20685;-69
2022/04/28 05:30:33;;;;;;;20.07;10.93;;;2.40;99.90;;;;;;4195036;28;20677;-68
2022/04/28 05:32:34;;;;;;;21.20;11.57;;;2.40;99.90;;;;;;4195054;28;20738;-69
2022/04/28 05:34:34;;;;;;;24.77;11.33;;;2.40;99.90;;;;;;4194987;28;20194;-69
2022/04/28 05:36:37;;;;;;;20.33;10.83;;;2.50;99.90;;;;;;4194492;28;20267;-69
2022/04/28 05:38:38;;;;;;;21.93;11.20;;;2.50;99.90;;;;;;4194081;28;20718;-69
2022/04/28 05:40:41;;;;;;;20.77;10.43;;;2.60;99.90;;;;;;4193877;28;20429;-69
2022/04/28 05:47:21;;;;;;;18.10;10.43;;;2.80;99.90;;;;;;4194977;28;20405;-70
2022/04/28 05:49:21;;;;;;;19.97;10.47;;;2.80;99.90;;;;;;4193557;28;20473;-69
2022/04/28 05:51:22;;;;;;;17.70;10.47;;;2.80;99.90;;;;;;4194707;28;20427;-69
2022/04/28 05:53:23;;;;;;;20.43;10.97;;;2.90;99.90;;;;;;4194857;28;20599;-68
2022/04/28 05:55:23;;;;;;;18.63;10.77;;;3.00;99.90;;;;;;4192999;28;20709;-69
2022/04/28 05:57:24;;;;;;;21.97;11.43;;;3.00;99.90;;;;;;4194757;28;20673;-69
2022/04/28 05:59:25;;;;;;;16.60;10.17;;;3.00;99.90;;;;;;4194826;28;20678;-69
2022/04/28 06:01:25;;;;;;;20.60;11.27;;;3.10;99.90;;;;;;4194890;28;20665;-68
2022/04/28 06:03:27;;;;;;;21.00;11.67;;;3.10;99.90;;;;;;4194776;28;20199;-68
2022/04/28 06:05:28;;;;;;;22.70;11.83;;;3.20;99.90;;;;;;4194063;28;20212;-69
2022/04/28 06:07:29;;;;;;;23.33;13.07;;;3.20;99.90;;;;;;4193358;28;20464;-68
2022/04/28 06:09:29;;;;;;;24.70;13.53;;;3.30;99.90;;;;;;4194707;28;20575;-69
2022/04/28 06:11:30;;;;;;;21.67;13.50;;;3.40;99.90;;;;;;4194713;28;20181;-68
2022/04/28 06:13:31;;;;;;;26.20;13.07;;;3.50;99.90;;;;;;4194620;28;20213;-70
2022/04/28 06:15:32;;;;;;;25.17;12.93;;;3.50;99.90;;;;;;4194133;28;20180;-69
2022/04/28 06:17:33;;;;;;;24.27;12.77;;;3.60;99.90;;;;;;4194267;28;20923;-69
2022/04/28 06:19:33;;;;;;;23.47;12.97;;;3.60;99.90;;;;;;4194752;28;20608;-69
2022/04/28 06:21:35;;;;;;;27.03;14.30;;;3.70;99.90;;;;;;4195166;28;20183;-69
2022/04/28 06:23:36;;;;;;;27.13;15.43;;;3.80;99.90;;;;;;4190183;28;20217;-70
2022/04/28 06:25:37;;;;;;;21.77;13.17;;;3.90;99.90;;;;;;4187787;28;20433;-69
2022/04/28 06:27:38;;;;;;;23.33;13.80;;;4.00;99.90;;;;;;4192355;28;20685;-71
2022/04/28 06:29:38;;;;;;;28.97;13.67;;;4.10;99.90;;;;;;4181239;28;20444;-69
2022/04/28 06:31:39;;;;;;;22.60;13.13;;;4.20;99.90;;;;;;4181313;28;20421;-69
2022/04/28 06:33:41;;;;;;;24.67;12.67;;;4.30;99.90;;;;;;4181109;28;20668;-69
2022/04/28 06:35:41;;;;;;;21.90;12.30;;;4.40;99.90;;;;;;4180651;28;20265;-69
2022/04/28 06:37:42;;;;;;;23.07;12.97;;;4.50;99.90;;;;;;4181178;28;20523;-69
2022/04/28 06:39:43;;;;;;;20.73;11.40;;;4.60;99.90;;;;;;4181266;28;20209;-69
2022/04/28 06:41:44;;;;;;;18.47;10.70;;;4.70;99.90;;;;;;4181153;28;20183;-70
2022/04/28 06:43:44;;;;;;;17.40;9.90;;;4.80;99.90;;;;;;4180865;28;20469;-71
2022/04/28 06:48:05;;;;;;;17.87;10.33;;;5.20;99.90;;;;;;4181299;28;20229;-69
2022/04/28 06:50:06;;;;;;;14.57;8.77;;;5.40;99.90;;;;;;4181344;28;20430;-68
2022/04/28 06:52:06;;;;;;;13.47;8.57;;;5.50;99.90;;;;;;4180857;28;20424;-69
2022/04/28 06:54:08;;;;;;;12.93;8.40;;;5.70;99.90;;;;;;4179624;28;21043;-68
2022/04/28 06:56:09;;;;;;;10.37;7.77;;;6.00;99.90;;;;;;4180413;28;20187;-69
2022/04/28 06:58:10;;;;;;;14.27;8.63;;;6.10;99.90;;;;;;4181264;28;20428;-69
2022/04/28 07:00:11;;;;;;;12.83;7.23;;;6.10;99.90;;;;;;4180904;28;20176;-67
2022/04/28 07:02:12;;;;;;;13.37;9.03;;;6.30;99.90;;;;;;4179404;28;20208;-68
2022/04/28 07:04:12;;;;;;;12.77;7.73;;;6.30;99.90;;;;;;4186073;28;20856;-69
2022/04/28 07:06:14;;;;;;;13.63;7.67;;;6.40;99.90;;;;;;4187851;28;20817;-69
2022/04/28 07:08:14;;;;;;;9.77;6.80;;;6.80;99.90;;;;;;4196337;28;20692;-69
2022/04/28 07:10:15;;;;;;;13.43;7.70;;;7.00;99.90;;;;;;4197368;28;20418;-68
2022/04/28 07:12:16;;;;;;;9.87;7.07;;;7.00;99.90;;;;;;4196957;28;20204;-69
2022/04/28 07:14:17;;;;;;;10.97;7.13;;;7.00;99.90;;;;;;4195919;28;20195;-69
2022/04/28 07:16:17;;;;;;;7.63;5.87;;;7.00;99.90;;;;;;4196351;28;20262;-69
2022/04/28 07:18:18;;;;;;;9.40;5.70;;;7.00;99.90;;;;;;4195654;28;20203;-69
2022/04/28 07:20:19;;;;;;;7.90;5.57;;;7.30;99.90;;;;;;4196693;28;20202;-69
2022/04/28 07:22:19;;;;;;;9.77;6.03;;;7.50;99.40;;;;;;4197108;28;20245;-70
2022/04/28 07:24:20;;;;;;;8.40;5.37;;;7.40;99.90;;;;;;4197019;28;20172;-69
2022/04/28 07:26:21;;;;;;;8.77;6.27;;;7.60;99.50;;;;;;4196423;28;20176;-70
2022/04/28 07:28:21;;;;;;;8.90;4.73;;;7.70;99.10;;;;;;4196863;28;20542;-68
2022/04/28 07:30:23;;;;;;;7.23;5.30;;;7.70;99.60;;;;;;4195792;28;20788;-69
2022/04/28 07:32:23;;;;;;;6.90;5.30;;;7.90;98.60;;;;;;4194440;28;20215;-70
2022/04/28 07:34:24;;;;;;;8.37;5.43;;;8.10;94.70;;;;;;4196657;28;20923;-69
2022/04/28 07:36:25;;;;;;;6.60;4.47;;;8.10;93.70;;;;;;4196117;28;20654;-70
2022/04/28 07:38:25;;;;;;;6.73;5.23;;;8.30;94.40;;;;;;4196607;28;20205;-68
2022/04/28 07:40:26;;;;;;;6.27;4.60;;;8.40;95.70;;;;;;4196849;28;20220;-69
2022/04/28 07:42:27;;;;;;;5.63;4.50;;;8.50;95.20;;;;;;4196469;28;20221;-69
2022/04/28 07:44:28;;;;;;;6.27;4.63;;;8.60;95.50;;;;;;4196558;28;20278;-69
2022/04/28 07:46:28;;;;;;;4.93;3.90;;;8.70;92.30;;;;;;4196059;28;20179;-69
2022/04/28 07:48:29;;;;;;;6.83;5.03;;;8.80;92.50;;;;;;4196559;28;20209;-69
2022/04/28 07:50:30;;;;;;;7.03;4.50;;;8.70;93.60;;;;;;4196426;28;20371;-69
2022/04/28 07:52:31;;;;;;;6.90;5.30;;;8.90;91.70;;;;;;4196547;28;20284;-69
2022/04/28 07:54:32;;;;;;;5.73;4.23;;;9.10;92.90;;;;;;4196645;28;20186;-68
2022/04/28 07:56:33;;;;;;;6.07;4.60;;;9.20;91.30;;;;;;4195830;28;20269;-70
2022/04/28 07:58:33;;;;;;;5.43;3.90;;;9.30;94.50;;;;;;4196520;28;20199;-69
2022/04/28 08:00:34;;;;;;;4.73;3.93;;;9.40;88.70;;;;;;4195131;28;20885;-69
2022/04/28 08:02:38;;;;;;;4.70;3.47;;;9.60;88.40;;;;;;4196706;28;20268;-70
2022/04/28 08:04:38;;;;;;;5.33;4.00;;;9.80;86.00;;;;;;4195490;28;20176;-72
2022/04/28 08:06:39;;;;;;;5.67;3.80;;;9.80;89.30;;;;;;4195779;28;20179;-69
2022/04/28 08:08:41;;;;;;;4.60;3.77;;;10.00;89.90;;;;;;4196300;28;20253;-69
2022/04/28 08:10:42;;;;;;;5.00;3.93;;;10.20;86.80;;;;;;4195051;28;20176;-69
2022/04/28 08:12:42;;;;;;;5.27;4.07;;;10.20;78.30;;;;;;4196137;28;20278;-68
2022/04/28 08:14:43;;;;;;;5.30;3.80;;;10.20;79.50;;;;;;4196530;28;20674;-70
2022/04/28 08:16:46;;;;;;;6.43;3.97;;;10.30;82.50;;;;;;4194206;28;20544;-68
2022/04/28 08:18:46;;;;;;;4.50;3.13;;;10.50;82.00;;;;;;4196238;28;20207;-69
2022/04/28 08:20:47;;;;;;;4.43;3.17;;;10.70;77.80;;;;;;4196123;28;20164;-70
2022/04/28 08:22:47;;;;;;;4.97;3.70;;;10.80;80.00;;;;;;4195840;28;20669;-70
2022/04/28 08:24:48;;;;;;;5.27;3.27;;;11.00;74.20;;;;;;4196095;28;20543;-69
2022/04/28 08:26:49;;;;;;;5.37;3.13;;;11.00;72.40;;;;;;4195392;28;20787;-69
2022/04/28 08:28:50;;;;;;;3.93;3.30;;;11.10;70.10;;;;;;4195973;28;20196;-69
2022/04/28 08:30:51;;;;;;;5.10;3.20;;;11.00;75.80;;;;;;4195904;28;20747;-69
2022/04/28 08:32:52;;;;;;;4.40;2.90;;;11.10;72.30;;;;;;4193964;28;20187;-70
2022/04/28 08:34:53;;;;;;;3.70;2.93;;;11.00;64.90;;;;;;4180205;28;20185;-69
2022/04/28 08:36:53;;;;;;;3.20;2.67;;;11.10;68.10;;;;;;4178644;28;20223;-69
2022/04/28 08:38:54;;;;;;;3.87;3.43;;;11.30;71.10;;;;;;4179349;28;20207;-70
2022/04/28 08:41:22;;;;;;;3.20;2.70;;;11.40;63.70;;;;;;4179203;28;20549;-70
2022/04/28 08:43:23;;;;;;;4.03;2.97;;;11.50;64.90;;;;;;4177401;28;20275;-70
2022/04/28 08:45:28;;;;;;;3.63;2.70;;;11.60;64.70;;;;;;4177082;28;20176;-69
2022/04/28 08:47:29;;;;;;;4.20;2.80;;;11.60;63.70;;;;;;4179047;28;20267;-70
2022/04/28 08:49:32;;;;;;;3.07;2.60;;;11.70;62.80;;;;;;4178753;28;20281;-69
2022/04/28 08:51:33;;;;;;;3.37;2.67;;;11.80;64.20;;;;;;4178974;28;20203;-69
2022/04/28 08:53:34;;;;;;;2.50;2.30;;;12.00;60.30;;;;;;4177727;28;20183;-70
2022/04/28 08:55:34;;;;;;;3.20;2.10;;;11.90;60.00;;;;;;4178148;28;20586;-71
2022/04/28 08:57:36;;;;;;;2.83;2.47;;;12.00;58.40;;;;;;4178856;28;20271;-69
2022/04/28 08:59:37;;;;;;;4.43;2.10;;;12.00;56.70;;;;;;4178922;28;20208;-69
2022/04/28 09:01:38;;;;;;;2.90;1.90;;;12.20;57.00;;;;;;4178752;28;20260;-69
2022/04/28 09:03:38;;;;;;;2.77;2.37;;;12.30;54.90;;;;;;4178896;28;20226;-69
2022/04/28 09:05:40;;;;;;;2.33;2.13;;;12.40;54.20;;;;;;4176904;28;21075;-70
2022/04/28 09:07:43;;;;;;;3.30;1.87;;;12.40;51.40;;;;;;4178816;28;20287;-70
2022/04/28 09:09:44;;;;;;;2.00;1.60;;;12.50;51.30;;;;;;4178692;28;20200;-70
2022/04/28 09:11:46;;;;;;;3.47;1.77;;;12.70;50.10;;;;;;4177539;28;20737;-69
2022/04/28 09:14:15;;;;;;;2.50;1.53;;;12.90;52.30;;;;;;4178808;28;20187;-69
2022/04/28 09:16:15;;;;;;;2.00;1.77;;;13.00;45.90;;;;;;4178379;28;20587;-69
2022/04/28 09:18:18;;;;;;;2.03;1.80;;;12.90;48.00;;;;;;4178796;28;20208;-69
2022/04/28 09:20:21;;;;;;;4.17;1.83;;;12.90;47.50;;;;;;4180534;28;20188;-70
2022/04/28 09:22:23;;;;;;;2.10;1.67;;;12.80;48.00;;;;;;4194821;28;20219;-69
2022/04/28 09:24:25;;;;;;;2.07;1.53;;;13.10;48.70;;;;;;4195098;28;20182;-70
2022/04/28 09:26:26;;;;;;;2.00;1.80;;;13.50;48.00;;;;;;4193243;28;20176;-70
2022/04/28 09:28:28;;;;;;;3.03;2.17;;;13.40;45.90;;;;;;4194885;28;20249;-69
2022/04/28 09:30:47;;;;;;;1.70;1.60;;;13.30;45.50;;;;;;4194922;28;20702;-70
2022/04/28 09:32:51;;;;;;;3.07;1.67;;;13.30;45.40;;;;;;4195141;28;20224;-70
2022/04/28 09:34:53;;;;;;;2.47;2.00;;;13.40;45.70;;;;;;4195001;28;20192;-69
2022/04/28 09:36:56;;;;;;;5.23;2.17;;;13.70;45.00;;;;;;4194331;28;20564;-70
2022/04/28 09:38:57;;;;;;;3.57;2.13;;;13.70;47.20;;;;;;4195030;28;20195;-69
2022/04/28 09:43:19;;;;;;;2.67;1.97;;;13.50;46.40;;;;;;4193866;28;20198;-69
2022/04/28 09:45:23;;;;;;;3.63;2.00;;;14.10;45.70;;;;;;4194237;28;20211;-74
2022/04/28 09:47:25;;;;;;;2.47;2.23;;;14.40;46.40;;;;;;4194927;28;20260;-70
2022/04/28 09:49:29;;;;;;;3.50;1.80;;;14.60;43.40;;;;;;4193625;28;20219;-71
2022/04/28 09:51:29;;;;;;;3.07;2.10;;;14.40;43.70;;;;;;4193613;28;20246;-70
2022/04/28 09:53:33;;;;;;;2.60;1.93;;;14.10;43.70;;;;;;4194848;28;20251;-72
2022/04/28 09:55:35;;;;;;;2.10;1.87;;;14.20;46.00;;;;;;4192139;28;20283;-71
2022/04/28 09:57:36;;;;;;;1.90;1.80;;;14.40;44.40;;;;;;4194942;28;20186;-69
2022/04/28 09:59:37;;;;;;;2.83;2.37;;;14.60;48.90;;;;;;4195067;28;20195;-72
2022/04/28 10:01:39;;;;;;;3.80;1.90;;;14.30;44.80;;;;;;4194618;28;20200;-70
2022/04/28 10:03:41;;;;;;;2.20;1.90;;;14.50;44.30;;;;;;4193614;28;20207;-71
2022/04/28 10:05:43;;;;;;;3.17;2.10;;;14.60;43.90;;;;;;4194285;28;20263;-70
2022/04/28 10:07:44;;;;;;;1.60;1.50;;;14.90;42.90;;;;;;4193941;28;20649;-70
2022/04/28 10:09:50;;;;;;;1.90;1.80;;;15.30;43.40;;;;;;4193653;28;20219;-70
2022/04/28 10:11:52;;;;;;;2.03;1.60;;;15.80;42.50;;;;;;4193533;28;20185;-70
2022/04/28 10:13:53;;;;;;;2.50;1.73;;;15.50;41.40;;;;;;4194732;28;20183;-70
2022/04/28 10:15:59;;;;;;;2.40;2.20;;;15.60;41.60;;;;;;4194151;28;20225;-71
2022/04/28 10:18:09;;;;;;;2.97;2.07;;;15.60;42.40;;;;;;4193293;28;20183;-70
2022/04/28 10:20:32;;;;;;;2.83;2.27;;;16.00;41.40;;;;;;4193358;28;20195;-70
2022/04/28 10:22:35;;;;;;;2.93;2.13;;;15.80;41.90;;;;;;4193110;28;20200;-72
2022/04/28 10:34:14;;;;;;;2.73;2.30;;;19.20;34.40;;;;;;4187767;28;20192;-71
2022/04/28 10:36:23;;;;;;;2.60;2.40;;;19.30;35.60;;;;;;4176108;28;20184;-71
2022/04/28 10:38:26;;;;;;;3.60;2.47;;;18.90;34.20;;;;;;4177849;28;20206;-70
2022/04/28 10:40:27;;;;;;;3.10;2.40;;;19.30;33.30;;;;;;4177985;28;20202;-72
2022/04/28 10:42:27;;;;;;;2.73;2.17;;;18.00;34.20;;;;;;4177817;28;20204;-70
2022/04/28 10:44:32;;;;;;;3.50;2.20;;;18.40;35.30;;;;;;4177808;28;20183;-70
2022/04/28 10:46:33;;;;;;;2.50;2.00;;;18.50;34.10;;;;;;4176027;28;20172;-72
2022/04/28 10:48:42;;;;;;;3.63;2.53;;;19.30;36.70;;;;;;4177879;28;20309;-71
2022/04/28 10:51:18;;;;;;;2.30;2.10;;;19.30;35.40;;;;;;4177744;28;20208;-71
2022/04/28 10:53:20;;;;;;;2.70;2.50;;;19.00;35.90;;;;;;4177844;28;20233;-71
2022/04/28 10:55:24;;;;;;;2.33;2.13;;;19.40;34.50;;;;;;4177201;28;20215;-71
2022/04/28 10:57:36;;;;;;;2.60;2.40;;;20.20;33.90;;;;;;4177736;28;20180;-71
2022/04/28 10:59:39;;;;;;;3.70;2.23;;;21.40;28.50;;;;;;4177920;28;20219;-71
2022/04/28 11:01:42;;;;;;;3.80;2.30;;;20.90;29.60;;;;;;4177743;28;20180;-70
2022/04/28 11:03:58;;;;;;;2.93;2.50;;;20.40;29.90;;;;;;4176547;28;20998;-71
2022/04/28 11:06:11;;;;;;;2.43;2.23;;;20.30;29.50;;;;;;4177134;28;20164;-72